createdAt,value
2019-05-17T00:00:07.699Z,93.20
2019-05-17T00:02:37.468Z,93.30
2019-05-17T00:05:08.684Z,93.60
2019-05-17T00:07:37.264Z,93.80
2019-05-17T00:10:07.567Z,94.00
2019-05-17T00:12:36.746Z,94.60
2019-05-17T00:15:07.866Z,94.40
2019-05-17T00:17:37.609Z,94.40
2019-05-17T00:20:07.805Z,94.40
2019-05-17T00:22:36.680Z,94.40
2019-05-17T00:25:09.285Z,94.40
2019-05-17T00:27:38.101Z,94.50
2019-05-17T00:30:10.612Z,94.60
2019-05-17T00:32:39.115Z,94.60
2019-05-17T00:35:07.852Z,94.70
2019-05-17T00:37:37.357Z,94.90
2019-05-17T00:40:08.014Z,94.90
2019-05-17T00:42:37.188Z,95.00
2019-05-17T00:45:08.421Z,95.20
2019-05-17T00:47:37.485Z,94.70
2019-05-17T00:50:07.617Z,95.40
2019-05-17T00:52:36.823Z,95.70
2019-05-17T00:55:09.120Z,96.00
2019-05-17T00:57:37.633Z,96.10
2019-05-17T01:00:08.628Z,96.30
2019-05-17T01:02:37.167Z,96.30
2019-05-17T01:05:08.016Z,96.40
2019-05-17T01:07:37.693Z,96.60
2019-05-17T01:10:08.492Z,96.70
2019-05-17T01:12:37.045Z,96.70
2019-05-17T01:15:09.480Z,96.90
2019-05-17T01:17:37.959Z,97.00
2019-05-17T01:20:10.104Z,97.40
2019-05-17T01:22:38.596Z,97.20
2019-05-17T01:25:07.857Z,97.30
2019-05-17T01:27:38.148Z,97.60
2019-05-17T01:30:08.112Z,97.70
2019-05-17T01:32:37.393Z,97.70
2019-05-17T01:35:07.319Z,97.80
2019-05-17T01:37:37.030Z,97.90
2019-05-17T01:40:07.596Z,97.90
2019-05-17T01:42:37.471Z,97.90
2019-05-17T01:45:07.649Z,98.00
2019-05-17T01:47:36.850Z,98.10
2019-05-17T01:50:08.813Z,98.00
2019-05-17T01:52:37.254Z,98.10
2019-05-17T01:55:07.698Z,98.10
2019-05-17T01:57:36.964Z,98.20
2019-05-17T02:00:10.619Z,98.30
2019-05-17T02:02:49.981Z,98.30
2019-05-17T02:05:18.981Z,98.30
2019-05-17T02:07:47.398Z,98.40
2019-05-17T02:10:16.937Z,98.40
2019-05-17T02:12:48.669Z,98.40
2019-05-17T02:15:17.166Z,98.20
2019-05-17T02:17:46.823Z,98.00
2019-05-17T02:20:17.430Z,98.00
2019-05-17T02:22:47.421Z,98.10
2019-05-17T02:25:16.979Z,98.20
2019-05-17T02:27:45.797Z,98.30
2019-05-17T02:30:15.235Z,98.40
2019-05-17T02:32:45.380Z,98.30
2019-05-17T02:35:15.197Z,98.30
2019-05-17T02:37:44.142Z,98.40
2019-05-17T02:40:14.867Z,98.60
2019-05-17T02:42:43.996Z,98.50
2019-05-17T02:45:13.542Z,98.50
2019-05-17T02:47:43.609Z,98.50
2019-05-17T02:50:13.367Z,98.50
2019-05-17T02:52:43.571Z,98.60
2019-05-17T02:55:13.111Z,98.90
2019-05-17T02:57:43.434Z,98.30
2019-05-17T03:00:14.619Z,98.10
2019-05-17T03:02:43.861Z,98.10
2019-05-17T03:05:13.405Z,98.30
2019-05-17T03:07:43.740Z,98.50
2019-05-17T03:10:22.652Z,98.50
2019-05-17T03:12:44.342Z,98.60
2019-05-17T03:15:14.272Z,98.60
2019-05-17T03:17:43.599Z,98.80
2019-05-17T03:20:13.607Z,98.70
2019-05-17T03:22:44.178Z,98.80
2019-05-17T03:25:13.995Z,98.80
2019-05-17T03:27:43.247Z,98.70
2019-05-17T03:30:17.360Z,98.70
2019-05-17T03:32:47.908Z,99.00
2019-05-17T03:35:16.888Z,99.10
2019-05-17T03:37:44.231Z,99.30
2019-05-17T03:40:24.914Z,99.20
2019-05-17T03:42:43.985Z,99.20
2019-05-17T03:45:14.131Z,99.30
2019-05-17T03:47:44.375Z,99.30
2019-05-17T03:50:14.238Z,99.30
2019-05-17T03:52:44.511Z,99.20
2019-05-17T03:55:13.710Z,99.10
2019-05-17T03:57:44.251Z,99.00
2019-05-17T04:00:13.542Z,99.10
2019-05-17T04:02:44.339Z,99.30
2019-05-17T04:05:13.033Z,99.30
2019-05-17T04:07:43.350Z,99.30
2019-05-17T04:10:15.050Z,99.40
2019-05-17T04:12:44.127Z,99.20
2019-05-17T04:15:15.160Z,99.20
2019-05-17T04:17:44.333Z,99.20
2019-05-17T04:20:14.229Z,99.20
2019-05-17T04:22:44.151Z,99.30
2019-05-17T04:25:14.029Z,99.40
2019-05-17T04:27:43.976Z,99.50
2019-05-17T04:30:14.479Z,99.60
2019-05-17T04:32:44.198Z,98.90
2019-05-17T04:35:13.870Z,99.00
2019-05-17T04:37:44.449Z,98.90
2019-05-17T04:40:14.527Z,99.00
2019-05-17T04:42:44.402Z,99.00
2019-05-17T04:45:13.571Z,99.00
2019-05-17T04:47:44.484Z,98.90
2019-05-17T04:50:13.799Z,98.90
2019-05-17T04:52:43.376Z,98.60
2019-05-17T04:55:13.886Z,98.20
2019-05-17T04:57:43.836Z,97.70
2019-05-17T05:00:13.635Z,97.00
2019-05-17T05:02:43.982Z,96.60
2019-05-17T05:05:14.035Z,96.40
2019-05-17T05:07:43.449Z,96.20
2019-05-17T05:10:13.695Z,96.00
2019-05-17T05:12:43.447Z,96.00
2019-05-17T05:15:13.838Z,95.80
2019-05-17T05:17:42.820Z,95.60
2019-05-17T05:20:13.248Z,95.50
2019-05-17T05:22:42.812Z,95.10
2019-05-17T05:25:12.529Z,94.60
2019-05-17T05:27:42.811Z,94.10
2019-05-17T05:30:12.486Z,93.50
2019-05-17T05:32:42.520Z,93.10
2019-05-17T05:35:12.597Z,92.60
2019-05-17T05:37:42.445Z,91.70
2019-05-17T05:40:15.480Z,91.30
2019-05-17T05:42:46.647Z,90.90
2019-05-17T05:45:15.137Z,90.60
2019-05-17T05:47:45.193Z,90.40
2019-05-17T05:50:17.267Z,90.40
2019-05-17T05:52:44.515Z,90.20
2019-05-17T05:55:13.172Z,89.40
2019-05-17T05:57:42.284Z,89.80
2019-05-17T06:00:13.373Z,88.40
2019-05-17T06:02:42.174Z,87.10
2019-05-17T06:05:14.861Z,86.70
2019-05-17T06:07:42.062Z,86.00
2019-05-17T06:10:13.131Z,86.40
2019-05-17T06:12:43.474Z,86.00
2019-05-17T06:15:12.937Z,84.80
2019-05-17T06:17:42.949Z,85.20
2019-05-17T06:20:12.166Z,83.60
2019-05-17T06:22:42.845Z,83.00
2019-05-17T06:25:14.796Z,82.60
2019-05-17T06:27:41.769Z,83.10
2019-05-17T06:30:12.543Z,83.30
2019-05-17T06:32:43.433Z,82.30
2019-05-17T06:35:13.303Z,83.00
2019-05-17T06:37:42.762Z,82.90
2019-05-17T06:40:13.091Z,81.90
2019-05-17T06:42:45.275Z,81.50
2019-05-17T06:45:13.014Z,81.50
2019-05-17T06:47:42.550Z,81.90
2019-05-17T06:50:14.315Z,81.50
2019-05-17T06:52:44.038Z,80.40
2019-05-17T06:55:13.207Z,79.30
2019-05-17T06:57:43.327Z,79.90
2019-05-17T07:00:19.653Z,78.90
2019-05-17T07:02:43.605Z,80.20
2019-05-17T07:05:14.141Z,77.70
2019-05-17T07:07:42.643Z,77.80
2019-05-17T07:10:12.436Z,76.90
2019-05-17T07:12:55.030Z,73.80
2019-05-17T07:15:11.304Z,76.40
2019-05-17T07:17:40.172Z,74.20
2019-05-17T07:20:10.622Z,74.20
2019-05-17T07:22:40.915Z,74.50
2019-05-17T07:25:10.985Z,73.50
2019-05-17T07:27:45.440Z,73.50
2019-05-17T07:30:11.136Z,73.00
2019-05-17T07:32:40.672Z,72.90
2019-05-17T07:35:10.799Z,72.00
2019-05-17T07:37:40.537Z,72.00
2019-05-17T07:40:10.938Z,71.90
2019-05-17T07:42:39.891Z,71.90
2019-05-17T07:45:11.280Z,70.50
2019-05-17T07:47:40.546Z,69.80
2019-05-17T07:50:11.400Z,70.60
2019-05-17T07:52:40.351Z,70.20
2019-05-17T07:55:10.866Z,69.80
2019-05-17T07:57:41.006Z,70.30
2019-05-17T08:00:10.900Z,68.90
2019-05-17T08:02:41.165Z,69.10
2019-05-17T08:05:10.361Z,68.20
2019-05-17T08:07:40.226Z,68.50
2019-05-17T08:10:10.978Z,69.10
2019-05-17T08:12:40.794Z,69.80
2019-05-17T08:15:10.903Z,68.60
2019-05-17T08:17:40.028Z,67.60
2019-05-17T08:20:10.407Z,66.60
2019-05-17T08:22:40.022Z,65.80
2019-05-17T08:25:10.436Z,66.50
2019-05-17T08:27:40.568Z,66.10
2019-05-17T08:30:11.276Z,66.30
2019-05-17T08:32:40.394Z,65.10
2019-05-17T08:35:11.306Z,65.40
2019-05-17T08:37:42.381Z,65.70
2019-05-17T08:40:10.900Z,65.10
2019-05-17T08:42:40.570Z,63.60
2019-05-17T08:45:09.921Z,65.90
2019-05-17T08:47:39.726Z,62.30
2019-05-17T08:50:11.172Z,61.30
2019-05-17T08:52:40.285Z,63.30
2019-05-17T08:55:09.976Z,63.60
2019-05-17T08:57:39.958Z,62.90
2019-05-17T09:00:10.386Z,61.50
2019-05-17T09:02:40.877Z,64.50
2019-05-17T09:05:10.293Z,61.50
2019-05-17T09:07:40.084Z,60.70
2019-05-17T09:10:09.933Z,64.30
2019-05-17T09:12:41.055Z,64.50
2019-05-17T09:15:10.210Z,63.30
2019-05-17T09:17:39.746Z,60.00
2019-05-17T09:20:10.638Z,59.10
2019-05-17T09:22:39.727Z,62.40
2019-05-17T09:25:13.596Z,63.50
2019-05-17T09:27:40.075Z,63.50
2019-05-17T09:30:09.640Z,64.50
2019-05-17T09:32:40.355Z,64.30
2019-05-17T09:35:10.474Z,62.00
2019-05-17T09:37:41.460Z,61.30
2019-05-17T09:40:09.951Z,60.50
2019-05-17T09:42:41.001Z,60.90
2019-05-17T09:45:09.606Z,60.40
2019-05-17T09:47:39.794Z,59.90
2019-05-17T09:50:09.939Z,60.10
2019-05-17T09:52:40.491Z,60.50
2019-05-17T09:55:10.166Z,59.90
2019-05-17T09:57:40.950Z,61.70
2019-05-17T10:00:10.918Z,61.40
2019-05-17T10:02:40.413Z,60.60
2019-05-17T10:05:10.628Z,59.00
2019-05-17T10:07:40.369Z,58.70
2019-05-17T10:10:10.359Z,59.60
2019-05-17T10:12:40.401Z,57.90
2019-05-17T10:15:10.193Z,57.20
2019-05-17T10:17:38.796Z,57.60
2019-05-17T10:20:10.558Z,57.80
2019-05-17T10:22:40.171Z,58.70
2019-05-17T10:25:09.639Z,59.90
2019-05-17T10:27:40.542Z,59.30
2019-05-17T10:30:10.424Z,58.20
2019-05-17T10:32:40.743Z,59.00
2019-05-17T10:35:09.832Z,58.60
2019-05-17T10:37:40.695Z,57.90
2019-05-17T10:40:10.380Z,56.60
2019-05-17T10:42:39.670Z,58.80
2019-05-17T10:45:10.825Z,57.90
2019-05-17T10:47:39.794Z,57.00
2019-05-17T10:50:10.876Z,56.50
2019-05-17T10:52:40.893Z,56.50
2019-05-17T10:55:10.488Z,56.30
2019-05-17T10:57:39.726Z,56.50
2019-05-17T11:00:10.428Z,55.70
2019-05-17T11:02:39.133Z,57.10
2019-05-17T11:05:10.326Z,56.60
2019-05-17T11:07:38.583Z,55.60
2019-05-17T11:10:11.137Z,55.30
2019-05-17T11:12:38.232Z,54.30
2019-05-17T11:15:11.514Z,55.90
2019-05-17T11:17:37.633Z,55.20
2019-05-17T11:20:08.179Z,55.10
2019-05-17T11:22:36.688Z,54.80
2019-05-17T11:25:06.722Z,53.20
2019-05-17T11:27:35.443Z,53.50
2019-05-17T11:30:05.198Z,52.90
2019-05-17T11:32:33.633Z,51.20
2019-05-17T11:35:02.073Z,52.70
2019-05-17T11:37:30.580Z,54.00
2019-05-17T11:39:59.025Z,54.30
2019-05-17T11:42:27.480Z,53.90
2019-05-17T11:44:55.909Z,53.50
2019-05-17T11:47:24.495Z,53.20
2019-05-17T11:49:52.901Z,53.40
2019-05-17T11:52:21.350Z,53.10
2019-05-17T11:54:49.773Z,53.60
2019-05-17T11:57:18.300Z,53.10
2019-05-17T11:59:46.733Z,53.10
2019-05-17T12:02:15.253Z,52.20
2019-05-17T12:04:43.675Z,51.90
2019-05-17T12:07:12.103Z,51.70
2019-05-17T12:09:40.583Z,51.50
2019-05-17T12:12:09.142Z,51.60
2019-05-17T12:14:37.656Z,51.60
2019-05-17T12:17:06.075Z,51.80
2019-05-17T12:19:36.997Z,51.60
2019-05-17T12:22:04.747Z,52.30
2019-05-17T12:24:33.191Z,53.60
2019-05-17T12:27:01.610Z,53.70
2019-05-17T12:29:30.050Z,53.10
2019-05-17T12:31:58.469Z,51.30
2019-05-17T12:34:26.906Z,51.40
2019-05-17T12:36:55.320Z,50.10
2019-05-17T12:39:23.790Z,49.80
2019-05-17T12:41:52.230Z,49.00
2019-05-17T12:44:20.680Z,51.40
2019-05-17T12:46:49.107Z,50.00
2019-05-17T12:49:17.564Z,48.40
2019-05-17T12:51:45.975Z,48.60
2019-05-17T12:54:14.415Z,47.50
2019-05-17T12:56:42.867Z,49.00
2019-05-17T12:59:11.377Z,49.10
2019-05-17T13:01:39.889Z,49.70
2019-05-17T13:04:08.328Z,49.30
2019-05-17T13:06:36.770Z,48.50
2019-05-17T13:09:06.443Z,48.40
2019-05-17T13:11:34.910Z,48.60
2019-05-17T13:14:03.430Z,49.70
2019-05-17T13:16:32.064Z,48.80
2019-05-17T13:19:00.487Z,48.30
2019-05-17T13:21:29.020Z,47.70
2019-05-17T13:23:57.433Z,48.40
2019-05-17T13:26:25.906Z,46.90
2019-05-17T13:28:54.363Z,47.30
2019-05-17T13:31:22.878Z,46.10
2019-05-17T13:33:51.286Z,46.20
2019-05-17T13:36:19.726Z,46.20
2019-05-17T13:38:48.172Z,47.10
2019-05-17T13:41:16.679Z,46.10
2019-05-17T13:43:45.112Z,45.30
2019-05-17T13:46:13.673Z,42.70
2019-05-17T13:48:42.216Z,43.80
2019-05-17T13:51:10.737Z,45.50
2019-05-17T13:53:39.149Z,46.30
2019-05-17T13:56:07.585Z,46.10
2019-05-17T13:58:36.019Z,46.90
2019-05-17T14:01:04.502Z,49.00
2019-05-17T14:03:32.964Z,48.80
2019-05-17T14:06:01.543Z,48.60
2019-05-17T14:08:29.953Z,48.40
2019-05-17T14:10:58.399Z,47.60
2019-05-17T14:13:27.080Z,46.90
2019-05-17T14:15:55.557Z,48.30
2019-05-17T14:18:23.997Z,47.90
2019-05-17T14:20:52.468Z,48.80
2019-05-17T14:23:20.886Z,48.00
2019-05-17T14:25:49.352Z,47.90
2019-05-17T14:28:17.807Z,49.80
2019-05-17T14:30:46.297Z,50.20
2019-05-17T14:33:14.737Z,50.80
2019-05-17T14:35:43.164Z,50.60
2019-05-17T14:38:11.592Z,50.30
2019-05-17T14:41:04.765Z,49.00
2019-05-17T14:43:10.215Z,47.60
2019-05-17T14:45:38.675Z,47.10
2019-05-17T14:48:07.193Z,46.50
2019-05-17T14:50:35.619Z,45.40
2019-05-17T14:53:04.149Z,45.90
2019-05-17T14:55:32.569Z,45.50
2019-05-17T14:58:01.128Z,44.90
2019-05-17T15:00:29.610Z,47.00
2019-05-17T15:02:58.049Z,48.10
2019-05-17T15:05:26.494Z,47.20
2019-05-17T15:07:54.925Z,46.60
2019-05-17T15:10:23.378Z,47.40
2019-05-17T15:12:51.958Z,46.90
2019-05-17T15:15:26.047Z,45.60
2019-05-17T15:17:50.784Z,45.50
2019-05-17T15:20:19.283Z,45.30
2019-05-17T15:22:47.744Z,46.40
2019-05-17T15:25:16.199Z,46.80
2019-05-17T15:27:44.653Z,47.20
2019-05-17T15:30:13.625Z,47.90
2019-05-17T15:32:42.055Z,48.80
2019-05-17T15:35:10.854Z,49.20
2019-05-17T15:37:39.294Z,49.60
2019-05-17T15:40:08.085Z,49.20
2019-05-17T15:42:44.376Z,49.70
2019-05-17T15:45:07.598Z,50.10
2019-05-17T15:47:36.151Z,51.80
2019-05-17T15:50:06.441Z,52.00
2019-05-17T15:52:34.952Z,52.10
2019-05-17T15:55:03.760Z,52.50
2019-05-17T15:57:32.179Z,52.90
2019-05-17T16:00:00.622Z,53.50
2019-05-17T16:02:29.039Z,54.50
2019-05-17T16:04:57.490Z,54.60
2019-05-17T16:07:25.914Z,54.70
2019-05-17T16:09:54.354Z,55.20
2019-05-17T16:12:22.782Z,55.50
2019-05-17T16:14:51.219Z,55.60
2019-05-17T16:17:19.644Z,55.90
2019-05-17T16:19:48.069Z,56.50
2019-05-17T16:22:16.503Z,56.40
2019-05-17T16:24:45.014Z,57.10
2019-05-17T16:27:13.424Z,55.90
2019-05-17T16:29:41.864Z,55.30
2019-05-17T16:32:10.304Z,55.70
2019-05-17T16:34:38.744Z,55.20
2019-05-17T16:37:07.180Z,54.60
2019-05-17T16:39:35.613Z,55.20
2019-05-17T16:42:04.098Z,55.40
2019-05-17T16:44:32.541Z,54.80
2019-05-17T16:47:00.965Z,55.20
2019-05-17T16:49:29.413Z,57.00
2019-05-17T16:51:57.940Z,57.80
2019-05-17T16:54:26.411Z,59.00
2019-05-17T16:56:55.077Z,57.80
2019-05-17T16:59:23.504Z,56.60
2019-05-17T17:01:52.006Z,54.90
2019-05-17T17:04:20.430Z,54.80
2019-05-17T17:06:48.873Z,55.00
2019-05-17T17:09:17.375Z,56.70
2019-05-17T17:11:45.880Z,55.50
2019-05-17T17:14:14.489Z,56.50
2019-05-17T17:16:42.921Z,56.70
2019-05-17T17:19:11.354Z,56.40
2019-05-17T17:21:39.816Z,58.40
2019-05-17T17:24:08.357Z,57.00
2019-05-17T17:26:36.777Z,56.50
2019-05-17T17:29:05.344Z,57.90
2019-05-17T17:31:33.778Z,57.20
2019-05-17T17:34:02.201Z,57.80
2019-05-17T17:36:30.634Z,58.20
2019-05-17T17:38:59.048Z,57.40
2019-05-17T17:41:27.826Z,58.70
2019-05-17T17:43:58.966Z,58.60
2019-05-17T17:46:26.573Z,60.20
2019-05-17T17:48:55.062Z,59.10
2019-05-17T17:51:23.586Z,58.50
2019-05-17T17:53:52.040Z,58.80
2019-05-17T17:56:20.643Z,59.30
2019-05-17T17:58:49.111Z,60.50
2019-05-17T18:01:17.686Z,61.40
2019-05-17T18:03:46.192Z,61.60
2019-05-17T18:06:14.621Z,63.10
2019-05-17T18:08:43.076Z,65.00
2019-05-17T18:11:11.563Z,65.90
2019-05-17T18:13:40.011Z,66.20
2019-05-17T18:16:08.543Z,66.60
2019-05-17T18:18:37.179Z,67.00
2019-05-17T18:21:05.597Z,67.90
2019-05-17T18:23:34.061Z,68.60
2019-05-17T18:26:02.526Z,69.10
2019-05-17T18:28:31.043Z,69.60
2019-05-17T18:30:59.461Z,70.30
2019-05-17T18:33:27.921Z,71.00
2019-05-17T18:35:56.353Z,72.30
2019-05-17T18:38:28.126Z,72.30
2019-05-17T18:40:56.551Z,71.90
2019-05-17T18:43:24.981Z,74.20
2019-05-17T18:45:53.425Z,76.30
2019-05-17T18:48:21.932Z,76.80
2019-05-17T18:50:50.438Z,77.30
2019-05-17T18:53:18.892Z,76.90
2019-05-17T18:55:47.354Z,77.50
2019-05-17T18:58:15.772Z,77.40
2019-05-17T19:00:44.403Z,77.90
2019-05-17T19:03:12.823Z,78.70
2019-05-17T19:05:41.342Z,81.10
2019-05-17T19:08:09.855Z,82.40
2019-05-17T19:10:38.320Z,83.60
2019-05-17T19:13:06.743Z,83.60
2019-05-17T19:15:35.205Z,84.10
2019-05-17T19:18:03.662Z,84.60
2019-05-17T19:20:32.122Z,84.80
2019-05-17T19:23:00.632Z,84.50
2019-05-17T19:25:29.171Z,84.70
2019-05-17T19:27:57.595Z,85.60
2019-05-17T19:30:26.186Z,86.60
2019-05-17T19:32:54.594Z,87.20
2019-05-17T19:35:23.164Z,87.70
2019-05-17T19:37:51.591Z,88.10
2019-05-17T19:40:20.554Z,88.30
2019-05-17T19:42:50.523Z,89.30
2019-05-17T19:45:19.210Z,88.50
2019-05-17T19:47:47.631Z,88.90
2019-05-17T19:50:16.643Z,89.50
2019-05-17T19:52:45.113Z,89.60
2019-05-17T19:55:13.814Z,89.80
2019-05-17T19:57:42.317Z,89.90
2019-05-17T20:00:17.447Z,89.90
2019-05-17T20:02:45.925Z,90.20
2019-05-17T20:05:14.627Z,90.20
2019-05-17T20:07:45.442Z,90.10
2019-05-17T20:10:14.404Z,90.10
2019-05-17T20:12:42.848Z,90.40
2019-05-17T20:15:17.789Z,90.80
2019-05-17T20:17:41.981Z,90.80
2019-05-17T20:20:10.669Z,90.90
2019-05-17T20:22:39.177Z,90.80
2019-05-17T20:25:08.237Z,90.90
2019-05-17T20:27:36.692Z,91.30
2019-05-17T20:30:09.117Z,91.50
2019-05-17T20:32:37.625Z,91.60
2019-05-17T20:35:07.098Z,91.40
2019-05-17T20:37:35.585Z,91.70
2019-05-17T20:40:06.430Z,91.40
2019-05-17T20:42:34.875Z,91.80
2019-05-17T20:45:05.138Z,92.10
2019-05-17T20:47:33.588Z,92.20
2019-05-17T20:50:02.070Z,92.40
2019-05-17T20:52:30.526Z,92.60
2019-05-17T20:54:58.981Z,92.60
2019-05-17T20:57:27.429Z,92.50
2019-05-17T20:59:55.875Z,92.50
2019-05-17T21:02:24.315Z,92.90
2019-05-17T21:04:52.764Z,93.30
2019-05-17T21:07:21.223Z,93.70
2019-05-17T21:09:49.721Z,93.80
2019-05-17T21:12:18.170Z,93.90
2019-05-17T21:14:46.705Z,94.10
2019-05-17T21:17:15.154Z,94.20
2019-05-17T21:19:43.612Z,94.10
2019-05-17T21:22:12.081Z,94.10
2019-05-17T21:24:40.543Z,94.30
2019-05-17T21:27:08.958Z,94.40
2019-05-17T21:29:37.408Z,94.40
2019-05-17T21:32:05.829Z,94.50
2019-05-17T21:34:35.905Z,94.30
2019-05-17T21:37:04.335Z,94.00
2019-05-17T21:39:32.773Z,94.10
2019-05-17T21:42:01.257Z,94.20
2019-05-17T21:44:29.712Z,94.60
2019-05-17T21:47:04.730Z,94.80
2019-05-17T21:49:28.310Z,94.90
2019-05-17T21:51:56.747Z,95.10
2019-05-17T21:54:25.186Z,95.20
2019-05-17T21:56:53.617Z,95.30
2019-05-17T21:59:22.056Z,95.40
2019-05-17T22:01:51.041Z,95.40
2019-05-17T22:04:19.562Z,95.60
2019-05-17T22:06:47.986Z,95.60
2019-05-17T22:09:16.417Z,95.60
2019-05-17T22:11:46.476Z,95.70
2019-05-17T22:14:15.075Z,95.80
2019-05-17T22:16:43.501Z,95.70
2019-05-17T22:19:11.949Z,95.80
2019-05-17T22:21:40.369Z,96.00
2019-05-17T22:24:08.810Z,96.10
2019-05-17T22:26:37.298Z,96.10
2019-05-17T22:29:05.724Z,96.10
2019-05-17T22:31:34.161Z,96.10
2019-05-17T22:34:02.624Z,96.00
2019-05-17T22:36:31.044Z,96.00
2019-05-17T22:38:59.557Z,96.20
2019-05-17T22:41:27.997Z,96.40
2019-05-17T22:43:56.453Z,96.50
2019-05-17T22:46:35.677Z,96.80
2019-05-17T22:48:55.053Z,96.30
2019-05-17T22:51:24.065Z,96.20
2019-05-17T22:53:52.555Z,96.00
2019-05-17T22:56:21.008Z,96.00
2019-05-17T22:58:49.428Z,96.10
2019-05-17T23:01:17.954Z,96.20
2019-05-17T23:03:46.374Z,96.20
2019-05-17T23:06:14.815Z,96.10
2019-05-17T23:08:43.228Z,96.10
2019-05-17T23:11:11.683Z,96.10
2019-05-17T23:13:40.106Z,96.00
2019-05-17T23:16:10.261Z,95.90
2019-05-17T23:18:38.689Z,95.90
2019-05-17T23:21:07.210Z,96.00
2019-05-17T23:23:35.623Z,96.00
2019-05-17T23:26:04.305Z,96.20
2019-05-17T23:28:32.737Z,96.10
2019-05-17T23:31:01.220Z,96.10
2019-05-17T23:33:29.685Z,95.90
2019-05-17T23:35:58.236Z,95.90
2019-05-17T23:38:26.663Z,95.90
2019-05-17T23:40:57.167Z,95.90
2019-05-17T23:43:25.558Z,96.00
2019-05-17T23:45:53.949Z,95.90
2019-05-17T23:48:23.923Z,95.90
2019-05-17T23:50:52.328Z,96.00
2019-05-17T23:53:20.939Z,96.50
2019-05-17T23:55:52.564Z,96.10
2019-05-17T23:58:21.041Z,96.10
